Time;durP1;ratioP1;P1;durP2;ratioP2;P2;SDS_P1;SDS_P2;PMS_P1;PMS_P2;Temp;Humidity;BMP_temperature;BMP_pressure;BME280_temperature;BME280_humidity;BME280_pressure;Samples;Min_cycle;Max_cycle;Signal;HPM_P1;HPM_P2
2022/07/13 00:01:46;;;;;;;2.20;1.70;;;17.60;93.50;;;;;;5065952;28;20457;-71
2022/07/13 00:04:32;;;;;;;2.73;1.90;;;17.70;93.60;;;;;;5068204;28;20519;-71
2022/07/13 00:07:18;;;;;;;2.93;1.83;;;17.70;93.90;;;;;;5064479;28;20492;-72
2022/07/13 00:10:04;;;;;;;5.90;1.50;;;17.80;94.10;;;;;;5067876;28;20450;-72
2022/07/13 00:12:51;;;;;;;2.40;1.67;;;17.90;94.00;;;;;;5066176;28;20465;-72
2022/07/13 00:15:37;;;;;;;5.13;2.00;;;18.00;93.90;;;;;;5072629;28;20427;-72
2022/07/13 00:18:22;;;;;;;8.47;2.07;;;18.00;93.90;;;;;;5066250;28;20417;-72
2022/07/13 00:21:08;;;;;;;7.30;2.00;;;18.00;94.40;;;;;;5068166;28;20565;-72
2022/07/13 00:23:54;;;;;;;3.43;1.70;;;18.00;94.70;;;;;;5069616;28;20585;-72
2022/07/13 00:26:40;;;;;;;3.70;1.60;;;18.10;94.80;;;;;;5060360;28;21082;-72
2022/07/13 00:29:27;;;;;;;3.60;1.83;;;18.20;94.50;;;;;;5069962;28;20624;-72
2022/07/13 00:32:12;;;;;;;3.00;1.63;;;18.20;94.50;;;;;;5068406;28;20447;-72
2022/07/13 00:34:58;;;;;;;2.50;1.67;;;18.20;94.40;;;;;;5063663;28;20421;-72
2022/07/13 00:37:44;;;;;;;2.30;1.63;;;18.30;94.20;;;;;;5063441;28;20438;-72
2022/07/13 00:40:29;;;;;;;3.23;1.67;;;18.40;94.20;;;;;;5068034;28;20434;-72
2022/07/13 00:43:15;;;;;;;5.00;2.10;;;18.40;94.10;;;;;;5067560;28;20484;-72
2022/07/13 00:46:03;;;;;;;3.40;1.93;;;18.40;93.80;;;;;;5063198;28;20450;-72
2022/07/13 00:48:48;;;;;;;2.20;1.40;;;18.30;93.60;;;;;;5065482;28;20475;-72
2022/07/13 00:51:34;;;;;;;4.23;2.00;;;18.20;93.70;;;;;;5070494;28;20421;-72
2022/07/13 00:54:29;;;;;;;2.70;1.90;;;18.10;94.00;;;;;;5065879;28;20474;-72
2022/07/13 00:57:15;;;;;;;2.37;1.80;;;18.00;94.40;;;;;;5061481;28;20435;-72
2022/07/13 01:00:04;;;;;;;2.63;1.70;;;17.90;94.40;;;;;;5065687;28;20990;-73
2022/07/13 01:02:51;;;;;;;2.30;1.70;;;17.80;95.00;;;;;;5062872;28;20466;-72
2022/07/13 01:05:37;;;;;;;2.70;1.60;;;17.70;95.50;;;;;;5066698;28;20442;-72
2022/07/13 01:08:24;;;;;;;4.87;1.90;;;17.80;96.10;;;;;;5067049;28;20446;-72
2022/07/13 01:11:10;;;;;;;5.33;1.80;;;17.90;96.20;;;;;;5064318;28;20454;-72
2022/07/13 01:13:57;;;;;;;2.10;1.43;;;18.00;95.80;;;;;;5064943;28;20516;-72
2022/07/13 01:16:42;;;;;;;3.20;2.20;;;18.00;95.70;;;;;;5064048;28;20417;-72
2022/07/13 01:19:29;;;;;;;3.50;1.70;;;18.10;95.60;;;;;;5068308;28;20438;-72
2022/07/13 01:22:20;;;;;;;2.27;1.83;;;18.00;95.50;;;;;;5067593;28;20497;-72
2022/07/13 01:25:08;;;;;;;4.10;2.20;;;18.00;95.50;;;;;;5064604;28;20452;-71
2022/07/13 01:27:53;;;;;;;6.33;1.83;;;17.90;96.20;;;;;;5065882;28;20601;-72
2022/07/13 01:30:39;;;;;;;2.67;1.87;;;17.80;96.30;;;;;;5068811;28;20592;-72
2022/07/13 01:33:25;;;;;;;4.37;1.70;;;17.70;97.20;;;;;;5067245;28;20462;-72
2022/07/13 01:36:10;;;;;;;3.07;2.07;;;17.60;97.50;;;;;;5059539;28;20443;-72
2022/07/13 01:38:57;;;;;;;2.60;2.13;;;17.50;98.20;;;;;;5069208;28;20442;-72
2022/07/13 01:41:44;;;;;;;6.00;1.63;;;17.30;99.20;;;;;;5069232;28;20417;-72
2022/07/13 01:44:30;;;;;;;3.67;1.90;;;17.40;99.90;;;;;;5068623;28;20967;-72
2022/07/13 01:47:15;;;;;;;2.70;1.50;;;17.50;99.90;;;;;;5064330;28;20494;-72
2022/07/13 01:50:01;;;;;;;6.83;1.83;;;17.50;99.90;;;;;;5065731;28;20450;-72
2022/07/13 01:52:47;;;;;;;3.43;2.00;;;17.70;99.80;;;;;;5066892;28;20470;-72
2022/07/13 01:55:33;;;;;;;3.17;1.90;;;17.80;99.40;;;;;;5097971;22;20484;-73
2022/07/13 01:58:20;;;;;;;2.40;1.83;;;17.80;99.20;;;;;;5087366;28;20437;-73
2022/07/13 02:01:05;;;;;;;8.37;1.87;;;17.90;98.90;;;;;;5087635;28;20445;-73
2022/07/13 02:03:51;;;;;;;4.40;1.90;;;17.80;98.80;;;;;;5093297;28;20466;-73
2022/07/13 02:06:37;;;;;;;3.50;1.87;;;17.80;98.60;;;;;;5083581;28;20465;-73
2022/07/13 02:09:23;;;;;;;1.83;1.40;;;17.80;98.60;;;;;;5085807;28;20596;-73
2022/07/13 02:12:09;;;;;;;2.87;1.67;;;17.50;99.00;;;;;;5088114;28;20457;-73
2022/07/13 02:14:56;;;;;;;2.20;1.60;;;17.40;99.10;;;;;;5076101;28;20567;-73
2022/07/13 02:17:42;;;;;;;3.20;1.70;;;17.30;99.10;;;;;;5080846;28;20459;-73
2022/07/13 02:20:28;;;;;;;2.93;1.97;;;17.20;99.60;;;;;;5080769;28;20442;-73
2022/07/13 02:23:13;;;;;;;5.37;1.53;;;17.20;99.70;;;;;;5086012;28;20811;-73
2022/07/13 02:25:59;;;;;;;2.83;1.70;;;17.10;99.80;;;;;;5085824;28;20445;-73
2022/07/13 02:28:44;;;;;;;3.20;1.93;;;17.10;99.90;;;;;;5086871;28;20438;-73
2022/07/13 02:31:33;;;;;;;3.57;1.90;;;17.10;99.90;;;;;;5087879;28;20452;-72
2022/07/13 02:34:19;;;;;;;4.40;1.50;;;17.00;99.90;;;;;;5083181;28;20499;-72
2022/07/13 02:37:04;;;;;;;4.43;1.80;;;17.00;99.90;;;;;;5084832;28;20450;-73
2022/07/13 02:39:51;;;;;;;5.00;1.80;;;17.00;99.90;;;;;;5084041;28;20811;-73
2022/07/13 02:42:37;;;;;;;3.33;1.80;;;16.90;99.90;;;;;;5087363;28;20957;-73
2022/07/13 02:45:23;;;;;;;5.43;1.63;;;16.80;99.90;;;;;;5075816;28;20552;-73
2022/07/13 02:48:10;;;;;;;4.13;2.40;;;16.80;99.90;;;;;;5083147;28;21085;-73
2022/07/13 02:50:56;;;;;;;2.77;2.27;;;16.80;99.90;;;;;;5084969;28;20461;-73
2022/07/13 02:53:41;;;;;;;5.70;1.87;;;16.60;99.90;;;;;;5083615;28;20527;-73
2022/07/13 02:56:27;;;;;;;7.50;2.80;;;16.50;99.90;;;;;;5080951;28;20986;-72
2022/07/13 02:59:12;;;;;;;2.07;1.53;;;16.60;99.90;;;;;;5082122;28;20442;-73
2022/07/13 03:01:58;;;;;;;4.97;2.40;;;16.60;99.90;;;;;;5079900;28;20470;-73
2022/07/13 03:04:45;;;;;;;4.80;2.10;;;16.50;99.90;;;;;;5084507;28;20466;-73
2022/07/13 03:07:31;;;;;;;2.70;1.80;;;16.50;99.90;;;;;;5086191;28;20461;-73
2022/07/13 03:10:16;;;;;;;2.47;1.87;;;16.50;99.90;;;;;;5087314;28;20833;-73
2022/07/13 03:13:02;;;;;;;2.40;1.67;;;16.60;99.90;;;;;;5084200;28;20504;-73
2022/07/13 03:15:47;;;;;;;5.10;1.90;;;16.50;99.90;;;;;;5082635;28;20466;-73
2022/07/13 03:18:33;;;;;;;3.17;2.87;;;16.50;99.90;;;;;;5087014;28;20433;-73
2022/07/13 03:21:20;;;;;;;4.17;1.73;;;16.50;99.90;;;;;;5087147;28;20453;-73
2022/07/13 03:24:06;;;;;;;3.90;2.03;;;16.60;99.90;;;;;;5079224;28;20473;-73
2022/07/13 03:26:52;;;;;;;2.50;1.80;;;16.60;99.90;;;;;;5079036;28;20495;-73
2022/07/13 03:29:38;;;;;;;3.00;1.63;;;16.60;99.90;;;;;;5090544;28;20408;-73
2022/07/13 03:32:23;;;;;;;2.77;1.67;;;16.50;99.90;;;;;;5090673;28;20966;-73
2022/07/13 03:35:09;;;;;;;5.23;1.90;;;16.60;99.90;;;;;;5085537;28;20465;-72
2022/07/13 03:37:56;;;;;;;2.40;1.60;;;16.70;99.90;;;;;;5087175;28;20449;-73
2022/07/13 03:40:42;;;;;;;2.90;1.90;;;16.80;99.90;;;;;;5088426;28;20511;-73
2022/07/13 03:43:28;;;;;;;3.20;1.67;;;16.90;99.90;;;;;;5087735;28;20491;-72
2022/07/13 03:46:13;;;;;;;3.80;1.77;;;17.00;99.90;;;;;;5090428;28;20445;-73
2022/07/13 03:48:59;;;;;;;3.30;1.93;;;16.90;99.90;;;;;;5087559;28;20936;-72
2022/07/13 03:51:46;;;;;;;1.80;1.30;;;16.90;99.90;;;;;;5091014;28;20803;-73
2022/07/13 03:54:33;;;;;;;2.30;1.60;;;16.90;99.90;;;;;;5084119;28;21050;-73
2022/07/13 03:57:18;;;;;;;2.43;2.03;;;16.70;99.90;;;;;;5089248;28;20437;-73
2022/07/13 04:00:06;;;;;;;2.60;1.63;;;16.70;99.90;;;;;;5091162;28;20523;-73
2022/07/13 04:02:51;;;;;;;2.00;1.57;;;16.70;99.90;;;;;;5091338;28;20456;-73
2022/07/13 04:05:37;;;;;;;2.30;1.73;;;16.60;99.90;;;;;;5082837;28;20464;-73
2022/07/13 04:08:22;;;;;;;5.50;1.70;;;16.60;99.90;;;;;;5089651;28;20480;-72
2022/07/13 04:11:09;;;;;;;3.20;2.03;;;16.70;99.90;;;;;;5086901;28;20470;-73
2022/07/13 04:13:55;;;;;;;7.53;2.00;;;16.50;99.90;;;;;;5086606;28;20978;-73
2022/07/13 04:16:40;;;;;;;5.27;1.70;;;16.60;99.90;;;;;;5078024;28;20446;-73
2022/07/13 04:19:26;;;;;;;2.60;2.00;;;16.70;99.90;;;;;;5089583;28;20408;-72
2022/07/13 04:22:12;;;;;;;4.63;1.83;;;16.70;99.90;;;;;;5088652;28;20959;-72
2022/07/13 04:24:57;;;;;;;5.83;2.10;;;16.70;99.90;;;;;;5082626;28;20465;-73
2022/07/13 04:27:45;;;;;;;12.10;1.90;;;16.80;99.90;;;;;;5085118;28;20481;-73
2022/07/13 04:30:30;;;;;;;2.30;1.70;;;16.90;99.90;;;;;;5088403;28;20438;-73
2022/07/13 04:33:17;;;;;;;3.73;1.80;;;16.90;99.90;;;;;;5086626;28;20432;-73
2022/07/13 04:36:03;;;;;;;7.50;2.00;;;16.80;99.90;;;;;;5089100;28;20450;-72
2022/07/13 04:38:48;;;;;;;2.90;2.07;;;16.80;99.90;;;;;;5087290;28;20795;-73
2022/07/13 04:41:34;;;;;;;2.57;1.90;;;16.70;99.90;;;;;;5088731;28;20433;-73
2022/07/13 04:44:21;;;;;;;2.13;1.40;;;16.70;99.90;;;;;;5082778;28;20938;-73
2022/07/13 04:47:07;;;;;;;2.50;1.93;;;16.70;99.90;;;;;;5087070;28;20441;-72
2022/07/13 04:49:53;;;;;;;3.60;1.90;;;16.80;99.90;;;;;;5090144;28;20446;-72
2022/07/13 04:52:39;;;;;;;2.90;2.20;;;16.90;99.90;;;;;;5086822;28;20879;-73
2022/07/13 04:55:24;;;;;;;3.33;1.90;;;17.00;99.90;;;;;;5086552;28;20469;-73
2022/07/13 04:58:10;;;;;;;3.40;1.97;;;17.20;99.90;;;;;;5089791;28;20445;-73
2022/07/13 05:00:57;;;;;;;3.07;1.73;;;17.20;99.90;;;;;;5089846;28;20977;-73
2022/07/13 05:03:43;;;;;;;2.70;1.83;;;17.30;99.90;;;;;;5081972;28;20958;-73
2022/07/13 05:06:29;;;;;;;4.37;2.33;;;17.40;99.90;;;;;;5088749;28;20491;-73
2022/07/13 05:09:15;;;;;;;3.90;1.90;;;17.50;99.90;;;;;;5086676;28;20477;-73
2022/07/13 05:12:00;;;;;;;2.30;1.90;;;17.60;99.90;;;;;;5086010;28;20543;-73
2022/07/13 05:14:46;;;;;;;2.23;1.53;;;17.50;99.90;;;;;;5088104;28;20461;-72
2022/07/13 05:17:33;;;;;;;4.07;1.67;;;17.60;99.90;;;;;;5088648;28;20433;-73
2022/07/13 05:20:18;;;;;;;6.33;1.90;;;17.60;99.90;;;;;;5089091;28;20492;-73
2022/07/13 05:23:04;;;;;;;1.90;1.40;;;17.70;99.90;;;;;;5078328;28;20507;-73
2022/07/13 05:25:50;;;;;;;2.40;2.03;;;17.80;99.90;;;;;;5086375;28;20432;-73
2022/07/13 05:28:36;;;;;;;6.20;2.03;;;17.90;99.90;;;;;;5083263;28;20501;-73
2022/07/13 05:31:21;;;;;;;3.27;2.63;;;18.00;99.90;;;;;;5087723;28;20441;-73
2022/07/13 05:34:08;;;;;;;4.60;1.97;;;18.10;99.90;;;;;;5083530;28;20462;-73
2022/07/13 05:36:54;;;;;;;7.10;2.27;;;18.20;99.90;;;;;;5084919;28;20445;-73
2022/07/13 05:39:43;;;;;;;2.60;1.90;;;18.30;99.90;;;;;;5088334;28;20443;-73
2022/07/13 05:42:30;;;;;;;4.50;2.17;;;18.40;99.90;;;;;;5082782;28;20450;-72
2022/07/13 05:45:15;;;;;;;2.83;2.10;;;18.50;99.90;;;;;;5087024;28;20465;-73
2022/07/13 05:48:01;;;;;;;2.20;1.90;;;18.50;99.90;;;;;;5087278;28;20627;-73
2022/07/13 05:50:48;;;;;;;4.57;2.00;;;18.60;99.90;;;;;;5085083;28;20438;-73
2022/07/13 05:53:34;;;;;;;6.10;1.80;;;18.70;99.90;;;;;;5079917;28;20804;-73
2022/07/13 05:56:19;;;;;;;5.90;1.80;;;18.70;99.90;;;;;;5086524;28;20445;-73
2022/07/13 05:59:05;;;;;;;3.03;1.90;;;18.80;99.90;;;;;;5085679;28;20446;-73
2022/07/13 06:01:51;;;;;;;4.60;1.70;;;18.80;99.70;;;;;;5084606;28;20438;-72
2022/07/13 06:04:36;;;;;;;2.13;1.60;;;18.90;98.90;;;;;;5086575;28;20465;-73
2022/07/13 06:07:23;;;;;;;4.60;1.83;;;18.90;98.60;;;;;;5085974;28;20433;-72
2022/07/13 06:10:10;;;;;;;7.60;2.10;;;18.90;98.70;;;;;;5080568;28;20441;-73
2022/07/13 06:12:55;;;;;;;3.47;2.17;;;19.00;98.70;;;;;;5081893;28;20431;-73
2022/07/13 06:15:41;;;;;;;3.70;2.17;;;19.10;98.60;;;;;;5088097;28;20941;-73
2022/07/13 06:18:27;;;;;;;4.83;2.43;;;19.20;98.20;;;;;;5087842;28;20424;-73
2022/07/13 06:21:12;;;;;;;2.73;1.80;;;19.20;97.60;;;;;;5077824;28;20450;-73
2022/07/13 06:24:00;;;;;;;3.50;2.00;;;19.20;97.70;;;;;;5085873;28;21040;-73
2022/07/13 06:26:46;;;;;;;2.77;1.73;;;19.20;97.70;;;;;;5084910;28;20461;-73
2022/07/13 06:29:32;;;;;;;3.30;1.77;;;19.20;97.50;;;;;;5087943;28;20575;-73
2022/07/13 06:32:17;;;;;;;4.30;2.43;;;19.20;97.70;;;;;;5081360;28;20492;-73
2022/07/13 06:35:03;;;;;;;2.73;1.53;;;19.30;98.40;;;;;;5080173;28;20540;-73
2022/07/13 06:37:49;;;;;;;3.83;1.67;;;19.40;99.00;;;;;;5090069;28;20433;-74
2022/07/13 06:40:37;;;;;;;5.30;2.10;;;19.30;98.70;;;;;;5090193;28;21200;-73
2022/07/13 06:43:23;;;;;;;2.10;1.60;;;19.40;99.90;;;;;;5081073;28;20807;-74
2022/07/13 06:46:09;;;;;;;3.33;1.60;;;19.40;99.90;;;;;;5088278;28;20469;-74
2022/07/13 06:48:55;;;;;;;2.87;1.87;;;19.40;99.90;;;;;;5084601;28;20469;-74
2022/07/13 06:51:40;;;;;;;3.87;1.47;;;19.50;99.90;;;;;;5083647;28;20495;-73
2022/07/13 06:54:26;;;;;;;4.43;1.70;;;19.70;99.90;;;;;;5095319;28;20462;-73
2022/07/13 06:57:13;;;;;;;3.20;1.50;;;19.70;99.40;;;;;;5090979;28;20555;-74
2022/07/13 06:59:59;;;;;;;2.53;1.80;;;19.80;99.50;;;;;;5071615;28;20443;-74
2022/07/13 07:02:45;;;;;;;2.57;1.90;;;19.90;99.00;;;;;;5089758;28;20446;-73
2022/07/13 07:05:30;;;;;;;3.23;1.90;;;19.90;99.90;;;;;;5093893;28;20531;-74
2022/07/13 07:08:16;;;;;;;4.90;1.90;;;20.00;99.90;;;;;;5075439;28;20490;-71
2022/07/13 07:11:02;;;;;;;3.80;2.00;;;20.00;99.90;;;;;;5084766;28;20520;-71
2022/07/13 07:13:49;;;;;;;8.60;1.97;;;20.10;99.70;;;;;;5094964;28;20981;-71
2022/07/13 07:16:34;;;;;;;5.63;1.50;;;20.30;99.90;;;;;;5096304;28;20449;-72
2022/07/13 07:19:20;;;;;;;2.30;1.80;;;20.50;99.10;;;;;;5075338;28;20419;-72
2022/07/13 07:22:06;;;;;;;3.30;1.80;;;20.60;97.50;;;;;;5088633;28;20441;-72
2022/07/13 07:24:52;;;;;;;3.30;1.73;;;20.70;96.80;;;;;;5092439;28;20479;-72
2022/07/13 07:27:39;;;;;;;3.30;2.07;;;20.90;98.00;;;;;;5094628;28;20491;-72
2022/07/13 07:30:26;;;;;;;4.90;1.60;;;21.10;97.10;;;;;;5104397;28;20508;-72
2022/07/13 07:33:12;;;;;;;2.20;1.50;;;21.30;92.60;;;;;;5085541;28;20445;-72
2022/07/13 07:35:58;;;;;;;3.27;2.03;;;21.40;90.20;;;;;;5090269;28;20437;-74
2022/07/13 07:38:44;;;;;;;2.67;1.30;;;21.60;87.80;;;;;;5087475;28;20583;-73
2022/07/13 07:41:29;;;;;;;3.63;1.43;;;21.80;83.40;;;;;;5090479;28;20507;-73
2022/07/13 07:44:15;;;;;;;3.57;1.47;;;21.90;78.40;;;;;;5081644;28;20508;-73
2022/07/13 07:47:02;;;;;;;4.50;1.37;;;22.10;76.30;;;;;;5092756;28;20441;-74
2022/07/13 07:49:48;;;;;;;2.73;1.43;;;22.30;73.20;;;;;;5087606;28;20461;-73
2022/07/13 07:52:34;;;;;;;2.20;1.30;;;22.50;72.30;;;;;;5086495;28;20453;-73
2022/07/13 07:55:19;;;;;;;5.17;1.60;;;22.60;70.90;;;;;;5084735;28;20682;-73
2022/07/13 07:58:05;;;;;;;4.10;1.80;;;22.70;69.90;;;;;;5084517;28;20780;-73
2022/07/13 08:00:52;;;;;;;4.97;1.60;;;22.80;69.60;;;;;;5084739;28;20445;-73
2022/07/13 08:03:40;;;;;;;6.30;1.60;;;22.90;75.70;;;;;;5080331;28;20441;-73
2022/07/13 08:06:25;;;;;;;4.23;1.07;;;23.00;71.70;;;;;;5093320;28;20508;-73
2022/07/13 08:09:11;;;;;;;2.67;1.60;;;23.00;68.10;;;;;;5093071;28;20535;-73
2022/07/13 08:11:57;;;;;;;2.87;1.53;;;23.10;70.30;;;;;;5088795;28;20505;-73
2022/07/13 08:14:42;;;;;;;3.97;1.40;;;23.10;71.70;;;;;;5089250;28;20975;-73
2022/07/13 08:17:28;;;;;;;2.70;1.40;;;23.30;71.30;;;;;;5093425;28;20937;-73
2022/07/13 08:20:15;;;;;;;4.00;1.90;;;23.40;66.20;;;;;;5092797;28;20416;-73
2022/07/13 08:23:01;;;;;;;2.17;1.23;;;23.50;66.10;;;;;;5087131;28;20872;-73
2022/07/13 08:25:46;;;;;;;4.47;1.53;;;23.60;69.80;;;;;;5092081;28;20457;-73
2022/07/13 08:28:32;;;;;;;3.10;1.43;;;23.60;67.90;;;;;;5091634;28;20465;-73
2022/07/13 08:31:20;;;;;;;1.60;0.90;;;23.80;65.00;;;;;;5071946;28;20493;-73
2022/07/13 08:40:13;;;;;;;2.27;1.10;;;24.00;68.20;;;;;;5072761;28;20959;-73
2022/07/13 08:43:00;;;;;;;2.07;1.00;;;24.20;63.20;;;;;;5073274;28;20458;-73
2022/07/13 08:45:46;;;;;;;2.77;1.03;;;24.40;60.50;;;;;;5091360;28;21059;-73
2022/07/13 08:48:36;;;;;;;5.03;1.30;;;24.50;58.20;;;;;;5092536;28;20603;-73
2022/07/13 08:51:23;;;;;;;2.50;1.13;;;24.60;58.30;;;;;;5089134;28;20446;-73
2022/07/13 08:54:10;;;;;;;2.37;1.30;;;24.90;44.80;;;;;;5090014;28;20559;-73
2022/07/13 08:56:55;;;;;;;3.53;1.47;;;25.20;45.90;;;;;;5091195;28;20418;-73
2022/07/13 08:59:41;;;;;;;5.60;1.10;;;25.30;38.70;;;;;;5089180;28;20433;-73
2022/07/13 09:02:26;;;;;;;2.73;1.20;;;25.40;41.70;;;;;;5086143;28;20457;-73
2022/07/13 09:05:12;;;;;;;2.50;1.10;;;25.50;40.80;;;;;;5085378;28;20958;-73
2022/07/13 09:08:06;;;;;;;1.70;0.80;;;25.50;36.20;;;;;;5092506;28;20425;-73
2022/07/13 09:10:57;;;;;;;3.90;1.03;;;25.60;37.90;;;;;;5089594;28;20446;-73
2022/07/13 09:13:44;;;;;;;2.83;0.80;;;25.70;37.00;;;;;;5088456;28;20972;-73
2022/07/13 09:16:30;;;;;;;3.40;0.87;;;25.70;34.10;;;;;;5091471;28;20418;-73
2022/07/13 09:19:16;;;;;;;2.33;1.03;;;25.80;34.50;;;;;;5091812;28;20540;-73
2022/07/13 09:22:09;;;;;;;2.73;1.30;;;25.90;35.30;;;;;;5087344;28;20450;-73
2022/07/13 09:24:55;;;;;;;4.73;1.00;;;26.10;35.20;;;;;;5086025;28;20529;-73
2022/07/13 09:27:48;;;;;;;4.20;1.10;;;26.30;31.60;;;;;;5074781;28;20454;-73
2022/07/13 09:30:35;;;;;;;3.80;1.17;;;26.40;31.70;;;;;;5070468;28;20470;-73
2022/07/13 09:33:32;;;;;;;1.97;1.03;;;26.60;30.10;;;;;;5071886;28;20422;-74
2022/07/13 09:36:22;;;;;;;6.40;1.13;;;26.60;30.40;;;;;;5090758;28;20450;-73
2022/07/13 09:39:10;;;;;;;1.97;0.83;;;26.50;32.90;;;;;;5091508;28;20417;-73
2022/07/13 09:41:56;;;;;;;7.80;1.40;;;26.60;34.40;;;;;;5082065;28;21005;-73
2022/07/13 09:48:00;;;;;;;2.97;1.30;;;26.60;31.50;;;;;;5091684;28;20441;-73
2022/07/13 09:50:53;;;;;;;3.40;1.37;;;26.60;33.00;;;;;;5086795;28;20473;-73
2022/07/13 09:53:40;;;;;;;3.80;1.43;;;26.80;32.00;;;;;;5088597;28;20517;-73
2022/07/13 09:56:27;;;;;;;3.03;1.00;;;26.90;32.10;;;;;;5087865;28;20450;-73
2022/07/13 09:59:13;;;;;;;3.30;1.30;;;26.90;32.10;;;;;;5091279;28;20471;-73
2022/07/13 10:02:01;;;;;;;2.57;1.10;;;27.00;32.20;;;;;;5083727;28;20539;-73
2022/07/13 10:04:49;;;;;;;3.40;1.10;;;26.80;32.00;;;;;;5088187;28;20454;-74
2022/07/13 10:07:35;;;;;;;2.67;1.30;;;26.70;34.00;;;;;;5091341;28;20420;-73
2022/07/13 10:10:20;;;;;;;2.27;1.30;;;26.80;33.90;;;;;;5084530;28;21267;-73
2022/07/13 10:13:06;;;;;;;4.10;1.10;;;26.90;29.00;;;;;;5071125;28;20422;-73
2022/07/13 10:15:52;;;;;;;5.10;1.33;;;27.00;31.90;;;;;;5085092;28;20445;-73
2022/07/13 10:18:41;;;;;;;6.87;1.40;;;27.10;31.00;;;;;;5091011;28;20488;-74
2022/07/13 10:21:40;;;;;;;2.30;1.30;;;27.10;30.90;;;;;;5077194;28;20457;-73
2022/07/13 10:24:27;;;;;;;2.33;1.10;;;27.20;29.00;;;;;;5088816;28;20477;-73
2022/07/13 10:27:27;;;;;;;2.77;1.10;;;27.30;32.50;;;;;;5090662;28;20770;-73
2022/07/13 10:30:25;;;;;;;1.90;1.10;;;27.40;29.00;;;;;;5085596;28;20494;-73
2022/07/13 10:33:20;;;;;;;3.30;1.03;;;27.40;29.30;;;;;;5071018;28;20434;-73
2022/07/13 10:36:08;;;;;;;6.60;1.00;;;27.40;30.20;;;;;;5072557;28;20927;-74
2022/07/13 10:39:08;;;;;;;5.00;1.00;;;27.60;31.20;;;;;;5077848;28;20449;-73
2022/07/13 10:42:00;;;;;;;1.77;0.90;;;27.80;28.50;;;;;;5076243;28;20528;-74
2022/07/13 10:44:46;;;;;;;4.77;1.00;;;28.00;26.40;;;;;;5074343;28;20528;-73
2022/07/13 10:47:45;;;;;;;2.63;1.27;;;28.20;27.40;;;;;;5082967;28;20528;-73
2022/07/13 10:50:36;;;;;;;2.20;1.30;;;28.30;25.10;;;;;;5076123;28;20561;-73
2022/07/13 10:54:02;;;;;;;2.13;1.20;;;28.40;26.20;;;;;;5084121;28;20540;-74
2022/07/13 10:57:14;;;;;;;4.00;1.37;;;28.50;23.40;;;;;;5091697;28;20437;-74
2022/07/13 11:00:02;;;;;;;2.63;0.97;;;28.50;24.20;;;;;;5087531;28;20445;-73
2022/07/13 11:02:49;;;;;;;3.00;1.23;;;28.40;25.60;;;;;;5074689;28;20426;-73
2022/07/13 11:05:35;;;;;;;1.90;0.90;;;28.30;25.50;;;;;;5073594;28;20553;-73
2022/07/13 11:08:31;;;;;;;2.00;0.93;;;28.30;27.30;;;;;;5078420;28;20441;-73
2022/07/13 11:11:19;;;;;;;7.03;1.37;;;28.20;28.00;;;;;;5075262;28;20433;-74
2022/07/13 11:14:43;;;;;;;2.00;0.83;;;28.10;29.10;;;;;;5074110;28;20796;-74
2022/07/13 11:17:28;;;;;;;3.87;1.20;;;28.00;26.00;;;;;;5073941;28;20526;-74
2022/07/13 11:20:14;;;;;;;14.60;1.40;;;28.00;26.00;;;;;;5081428;28;20560;-73
2022/07/13 11:26:11;;;;;;;2.50;1.00;;;27.90;25.30;;;;;;5090781;28;20425;-74
2022/07/13 11:29:09;;;;;;;2.40;1.00;;;27.90;26.00;;;;;;5091389;28;20421;-73
2022/07/13 11:31:59;;;;;;;2.57;1.10;;;27.90;25.60;;;;;;5094179;28;20425;-74
2022/07/13 11:34:46;;;;;;;2.00;1.00;;;27.90;25.90;;;;;;5093215;28;20441;-74
2022/07/13 11:37:32;;;;;;;5.10;0.90;;;27.90;27.60;;;;;;5083552;28;20450;-74
2022/07/13 11:40:29;;;;;;;7.40;1.00;;;27.90;26.20;;;;;;5073673;28;20979;-74
2022/07/13 11:43:16;;;;;;;4.40;1.40;;;28.10;26.90;;;;;;5073826;28;20426;-74
2022/07/13 11:46:04;;;;;;;2.43;1.00;;;28.10;26.10;;;;;;5073096;28;20450;-74
2022/07/13 11:48:58;;;;;;;1.90;0.90;;;28.20;27.70;;;;;;5072696;28;20446;-74
2022/07/13 11:51:44;;;;;;;6.87;1.20;;;28.20;27.00;;;;;;5077377;28;21284;-74
2022/07/13 11:54:30;;;;;;;2.17;1.03;;;28.20;26.30;;;;;;5085132;28;20457;-74
2022/07/13 11:57:20;;;;;;;2.30;1.10;;;28.20;26.30;;;;;;5093468;28;20421;-74
2022/07/13 12:00:09;;;;;;;3.10;1.30;;;28.40;29.40;;;;;;5080782;28;20446;-74
2022/07/13 12:02:56;;;;;;;4.03;0.90;;;28.40;27.60;;;;;;5073121;28;20881;-74
2022/07/13 12:05:44;;;;;;;7.63;1.23;;;28.60;25.00;;;;;;5072646;28;20439;-74
2022/07/13 12:08:33;;;;;;;7.27;0.90;;;28.80;25.40;;;;;;5071289;28;20823;-74
2022/07/13 12:11:19;;;;;;;2.40;1.20;;;28.90;22.70;;;;;;5081923;28;21034;-74
2022/07/13 12:14:05;;;;;;;3.30;0.90;;;29.00;23.20;;;;;;5093140;28;20520;-74
2022/07/13 12:16:51;;;;;;;3.10;1.10;;;29.10;26.20;;;;;;5093614;28;20425;-74
2022/07/13 12:19:37;;;;;;;2.40;1.30;;;29.30;22.10;;;;;;5083004;28;20445;-74
2022/07/13 12:22:24;;;;;;;2.70;1.20;;;29.40;21.80;;;;;;5087123;28;20430;-74
2022/07/13 12:25:09;;;;;;;2.30;1.00;;;29.60;21.90;;;;;;5092102;28;20523;-73
2022/07/13 12:27:58;;;;;;;2.10;0.80;;;29.70;22.00;;;;;;5092628;28;20487;-74
2022/07/13 12:30:58;;;;;;;3.17;1.00;;;29.70;22.00;;;;;;5073293;28;20477;-74
2022/07/13 12:33:47;;;;;;;3.00;1.00;;;29.60;21.40;;;;;;5076626;28;20465;-74
2022/07/13 12:36:38;;;;;;;10.00;0.87;;;29.60;19.40;;;;;;5080146;28;20457;-74
2022/07/13 12:39:35;;;;;;;3.93;0.80;;;29.60;20.70;;;;;;5080646;28;20611;-73
2022/07/13 12:42:21;;;;;;;2.67;0.73;;;29.60;18.30;;;;;;5072761;28;20957;-73
2022/07/13 12:45:16;;;;;;;2.27;0.77;;;29.50;19.10;;;;;;5072328;28;20963;-74
2022/07/13 12:48:03;;;;;;;3.87;1.00;;;29.50;18.60;;;;;;5079914;28;20461;-73
2022/07/13 12:50:58;;;;;;;2.50;0.90;;;29.40;18.10;;;;;;5092496;28;20465;-71
2022/07/13 12:53:48;;;;;;;5.30;1.07;;;29.40;17.20;;;;;;5085585;28;20500;-72
2022/07/13 12:56:47;;;;;;;3.80;0.80;;;29.40;17.80;;;;;;5086054;28;20438;-72
2022/07/13 12:59:34;;;;;;;2.20;0.80;;;29.50;18.30;;;;;;5080617;28;20437;-72
2022/07/13 13:02:21;;;;;;;3.07;0.70;;;29.70;16.60;;;;;;5086670;28;20458;-72
2022/07/13 13:05:08;;;;;;;2.20;1.10;;;29.90;18.60;;;;;;5089749;28;20539;-72
2022/07/13 13:07:56;;;;;;;2.90;1.10;;;30.10;17.50;;;;;;5082744;28;20793;-72
2022/07/13 13:10:42;;;;;;;4.33;0.87;;;30.40;16.70;;;;;;5088972;28;20465;-74
2022/07/13 13:13:27;;;;;;;2.10;0.83;;;30.50;17.10;;;;;;5072015;28;20740;-74
2022/07/13 13:16:13;;;;;;;3.47;0.60;;;30.70;16.60;;;;;;5088903;28;20425;-74
2022/07/13 13:18:59;;;;;;;2.40;0.60;;;30.80;14.80;;;;;;5087524;28;20813;-74
2022/07/13 13:21:45;;;;;;;2.10;0.70;;;30.80;14.50;;;;;;5086533;28;20911;-74
2022/07/13 13:24:32;;;;;;;2.70;0.70;;;30.70;15.50;;;;;;5088204;28;20949;-74
2022/07/13 13:27:17;;;;;;;2.60;0.90;;;30.70;15.20;;;;;;5087363;28;20433;-74
2022/07/13 13:33:07;;;;;;;2.97;0.90;;;30.60;15.30;;;;;;5071608;28;20470;-74
2022/07/13 13:35:52;;;;;;;2.60;0.80;;;30.50;15.10;;;;;;5084109;28;20871;-74
2022/07/13 13:38:38;;;;;;;2.67;0.93;;;30.40;15.40;;;;;;5078420;28;20559;-74
2022/07/13 13:41:25;;;;;;;2.63;0.80;;;30.30;15.00;;;;;;5083551;28;20425;-74
2022/07/13 13:44:11;;;;;;;6.70;0.80;;;30.30;16.40;;;;;;5091572;28;20437;-74
2022/07/13 13:46:56;;;;;;;5.57;1.10;;;30.40;16.20;;;;;;5087470;28;20454;-74
2022/07/13 13:49:42;;;;;;;3.60;0.90;;;30.40;15.50;;;;;;5090514;28;20418;-74
2022/07/13 13:52:28;;;;;;;2.77;1.07;;;30.40;16.00;;;;;;5090214;28;20430;-74
2022/07/13 13:55:14;;;;;;;3.80;0.90;;;30.40;17.40;;;;;;5104899;22;20595;-78
2022/07/13 13:58:01;;;;;;;2.50;1.10;;;30.30;19.60;;;;;;5089693;28;20457;-78
2022/07/13 14:00:46;;;;;;;5.60;0.80;;;30.30;20.30;;;;;;5088413;28;20434;-77
2022/07/13 14:03:33;;;;;;;1.83;0.77;;;30.30;17.20;;;;;;5091846;28;20446;-78
2022/07/13 14:06:19;;;;;;;8.37;0.90;;;30.50;18.00;;;;;;5071870;28;20474;-77
2022/07/13 14:09:04;;;;;;;2.17;0.90;;;30.80;16.90;;;;;;5065161;28;20451;-78
2022/07/13 14:11:50;;;;;;;3.10;0.83;;;31.30;16.30;;;;;;5072497;28;20830;-78
2022/07/13 14:14:37;;;;;;;3.80;1.10;;;31.60;16.00;;;;;;5071740;28;20457;-77
2022/07/13 14:17:22;;;;;;;2.20;0.90;;;31.60;14.30;;;;;;5068720;28;20862;-77
2022/07/13 14:20:09;;;;;;;4.33;1.07;;;31.70;14.90;;;;;;5062140;28;20443;-78
2022/07/13 14:22:54;;;;;;;4.43;1.70;;;31.70;15.30;;;;;;5073550;28;20427;-78
2022/07/13 14:25:40;;;;;;;2.93;1.17;;;31.80;16.20;;;;;;5066243;28;20463;-78
2022/07/13 14:28:25;;;;;;;3.33;1.43;;;32.00;16.00;;;;;;5071523;28;20501;-78
2022/07/13 14:31:12;;;;;;;3.60;1.00;;;32.10;18.10;;;;;;5071051;28;20493;-78
2022/07/13 14:33:58;;;;;;;2.43;0.87;;;31.90;15.00;;;;;;5073339;28;21049;-78
2022/07/13 14:36:44;;;;;;;4.83;0.90;;;31.80;15.40;;;;;;5064735;28;20589;-77
2022/07/13 14:39:30;;;;;;;1.90;0.70;;;31.70;13.90;;;;;;5068593;28;20441;-78
2022/07/13 14:42:15;;;;;;;4.53;0.90;;;31.80;14.80;;;;;;5072579;28;20427;-78
2022/07/13 14:45:01;;;;;;;1.90;0.70;;;31.90;14.20;;;;;;5071176;28;20475;-78